Terminal Aerodrome Forecast
Issued by NWS

Home | Current Version | Previous Version | Text Only | Print | Product List | Glossary On
Versions: 1 2 3 4 5 6 7 8 9 10 11 12 13 14 15 16 17 18 19 20 21 22 23 24 25 26
000
FTUS43 KGLD 271720
TAFMCK
TAF
KMCK 271720Z 2718/2818 16008KT P6SM SCT250
     FM280500 21008KT P6SM BKN230 WS020/24035KT
     FM280700 25009KT P6SM BKN230
     FM281000 30010KT P6SM SCT120 SCT250
     FM281500 33013KT P6SM BKN080=

USA.gov is the U.S. government's official web portal to all federal, state and local government web resources and services.